Hvar, Croatia

12:45 PM CET on December 05, 2016 (GMT +0100)
Dol Sv. Ana | | Change Station

Elev 315 ft 43.17 °N, 16.62 °E | Updated 37 seconds ago

Clear
Clear
51.6 °F
Feels Like 51.6 °F
N
2.9
Wind Variable Wind from East
Gusts 2.9 mph

Today
High -- | Low -- °F
--% Chance of Precip.
Yesterday
High -- | Low -- °F
Precip. -- in
Pressure 30.36 in
Visibility -9999.0 miles
Clouds
Dew Point 32 °F
Humidity 47%
Rainfall 0.00 in
Snow Depth Not available.
7:10 AM 4:19 PM
Waxing Crescent, 31% visible
METAR LDSP 051130Z 14003KT 100V170 CAVOK 14/04 Q1028 NOSIG
Pressure 30.36 in
Visibility -9999.0 miles
Clouds
Dew Point 32 °F
Humidity 47%
Rainfall 0.00 in
Snow Depth Not available.
7:10 AM 4:19 PM
Waxing Crescent, 31% visible
METAR LDSP 051130Z 14003KT 100V170 CAVOK 14/04 Q1028 NOSIG

10-Day Weather Forecast

×

Almanac

Astronomy

Dec. 05, 2016 Rise Set
Actual Time
Civil Twilight
Nautical Twilight
Astronomical Twilight
Moon
Length of Visible Light
Length of Day
Tomorrow will be .
, % of the Moon is Illuminated

Today's Extremes

Country Highs Country Lows

Community

WunderPhotos

Upload Photos

1,955,777 photos uploaded!

WunderBlog® & News

Nearby

Air Quality

  Air Quality AQ Index Pollutant
Not available.

Snow Depth

Station Depth Elevation

Earthquake Activity

City Distance Mag. Time & Date
Minimum magnitude displayed is 2.5.

Coastal Water Temperatures

Place Temperature

Stations

Nearby Weather Stations

Station Location Temp. Windchill Dew Point Humidity Wind Precip. Elev Updated Type